Time;durP1;ratioP1;P1;durP2;ratioP2;P2;SDS_P1;SDS_P2;PMS_P1;PMS_P2;Temp;Humidity;BMP_temperature;BMP_pressure;BME280_temperature;BME280_humidity;BME280_pressure;Samples;Min_cycle;Max_cycle;Signal;HPM_P1;HPM_P2
2021/12/27 00:00:45;;;;;;;24.55;17.83;;;;;;;;;;4990800;28;93199;-68
2021/12/27 00:03:12;;;;;;;34.42;22.35;;;;;;;;;;4991262;28;94544;-68
2021/12/27 00:05:38;;;;;;;31.42;20.23;;;;;;;;;;4991045;28;93652;-68
2021/12/27 00:08:04;;;;;;;39.72;23.25;;;;;;;;;;4994953;28;92483;-68
2021/12/27 00:10:31;;;;;;;40.20;22.58;;;;;;;;;;4988839;28;97071;-68
2021/12/27 00:12:58;;;;;;;37.17;23.65;;;;;;;;;;4991393;28;93705;-68
2021/12/27 00:15:25;;;;;;;38.67;22.98;;;;;;;;;;4990868;28;93182;-67
2021/12/27 00:17:51;;;;;;;37.58;24.08;;;;;;;;;;4990767;28;94224;-67
2021/12/27 00:20:18;;;;;;;45.45;23.67;;;;;;;;;;4984296;28;92520;-68
2021/12/27 00:22:45;;;;;;;41.95;23.33;;;;;;;;;;4992021;28;93399;-68
2021/12/27 00:25:12;;;;;;;48.50;26.05;;;;;;;;;;4991121;28;93620;-68
2021/12/27 00:27:39;;;;;;;40.28;22.15;;;;;;;;;;4993645;28;93160;-68
2021/12/27 00:30:07;;;;;;;34.63;21.50;;;;;;;;;;4991353;28;93963;-68
2021/12/27 00:32:36;;;;;;;46.95;26.42;;;;;;;;;;4977672;28;93828;-68
2021/12/27 00:35:06;;;;;;;39.58;24.85;;;;;;;;;;4987763;28;94874;-68
2021/12/27 00:37:33;;;;;;;45.97;26.08;;;;;;;;;;4988499;28;94281;-68
2021/12/27 00:40:00;;;;;;;54.17;24.05;;;;;;;;;;4991473;28;92902;-68
2021/12/27 00:42:26;;;;;;;53.55;26.90;;;;;;;;;;4989892;28;94001;-69
2021/12/27 00:44:52;;;;;;;52.58;27.02;;;;;;;;;;4989492;28;93453;-69
2021/12/27 00:47:19;;;;;;;47.45;27.95;;;;;;;;;;4992637;28;93991;-69
2021/12/27 00:49:45;;;;;;;38.65;25.00;;;;;;;;;;4993938;28;94020;-68
2021/12/27 00:52:12;;;;;;;40.58;24.08;;;;;;;;;;4991605;28;91807;-68
2021/12/27 00:54:38;;;;;;;45.42;26.00;;;;;;;;;;4990713;28;93732;-68
2021/12/27 00:57:04;;;;;;;47.63;23.98;;;;;;;;;;4991023;28;94580;-68
2021/12/27 00:59:31;;;;;;;44.42;25.58;;;;;;;;;;4987523;28;95030;-69
2021/12/27 01:01:57;;;;;;;46.20;26.08;;;;;;;;;;4993101;28;96053;-68
2021/12/27 01:04:25;;;;;;;39.53;24.05;;;;;;;;;;4992739;28;93130;-68
2021/12/27 01:06:51;;;;;;;45.90;26.67;;;;;;;;;;4996516;28;92431;-68
2021/12/27 01:09:32;;;;;;;55.33;26.65;;;;;;;;;;5014155;28;92906;-68
2021/12/27 01:15:05;;;;;;;52.42;27.40;;;;;;;;;;4981715;28;94200;-68
2021/12/27 01:17:30;;;;;;;62.38;29.40;;;;;;;;;;4993386;28;93566;-68
2021/12/27 01:19:56;;;;;;;58.88;29.88;;;;;;;;;;4993120;28;92457;-68
2021/12/27 01:22:22;;;;;;;61.47;29.52;;;;;;;;;;4993801;28;94644;-68
2021/12/27 01:24:48;;;;;;;63.50;29.42;;;;;;;;;;4992252;28;96259;-68
2021/12/27 01:27:15;;;;;;;78.03;32.58;;;;;;;;;;4991851;28;94002;-68
2021/12/27 01:29:41;;;;;;;57.97;26.27;;;;;;;;;;4993548;28;93996;-68
2021/12/27 01:32:07;;;;;;;64.75;29.15;;;;;;;;;;4984705;28;94000;-68
2021/12/27 01:34:34;;;;;;;73.97;32.10;;;;;;;;;;4978740;28;93871;-68
2021/12/27 01:37:00;;;;;;;62.03;28.88;;;;;;;;;;4987064;28;93991;-68
2021/12/27 01:39:27;;;;;;;61.97;27.42;;;;;;;;;;4974645;28;92525;-68
2021/12/27 01:41:54;;;;;;;69.75;31.20;;;;;;;;;;4993686;28;93996;-68
2021/12/27 01:44:20;;;;;;;79.57;31.13;;;;;;;;;;4993483;28;93089;-68
2021/12/27 01:46:46;;;;;;;69.78;32.05;;;;;;;;;;4994480;28;92622;-68
2021/12/27 01:49:13;;;;;;;65.75;30.50;;;;;;;;;;4991604;28;95071;-68
2021/12/27 01:51:40;;;;;;;77.47;32.35;;;;;;;;;;4998325;28;93433;-68
2021/12/27 01:54:07;;;;;;;55.55;28.40;;;;;;;;;;4981941;28;92526;-68
2021/12/27 01:56:33;;;;;;;68.05;31.55;;;;;;;;;;4993715;28;93876;-68
2021/12/27 01:58:59;;;;;;;70.07;31.58;;;;;;;;;;4978145;28;92977;-68
2021/12/27 02:01:26;;;;;;;65.50;30.10;;;;;;;;;;4973485;28;93979;-68
2021/12/27 02:03:54;;;;;;;63.45;32.20;;;;;;;;;;4988622;28;94283;-68
2021/12/27 02:06:20;;;;;;;66.57;31.80;;;;;;;;;;4993689;28;91690;-68
2021/12/27 02:08:46;;;;;;;72.38;30.80;;;;;;;;;;4992368;28;93721;-69
2021/12/27 02:11:14;;;;;;;62.38;28.90;;;;;;;;;;4993630;28;94900;-68
2021/12/27 02:13:44;;;;;;;65.35;30.70;;;;;;;;;;4990068;28;96172;-68
2021/12/27 02:16:12;;;;;;;67.22;29.92;;;;;;;;;;4982726;28;96656;-68
2021/12/27 02:18:40;;;;;;;89.85;31.73;;;;;;;;;;4979371;28;94466;-68
2021/12/27 02:21:06;;;;;;;65.43;30.27;;;;;;;;;;4992734;28;94092;-68
2021/12/27 02:23:33;;;;;;;68.05;31.92;;;;;;;;;;4994623;28;94120;-69
2021/12/27 02:25:59;;;;;;;92.45;32.60;;;;;;;;;;5007302;28;92486;-67
2021/12/27 02:28:26;;;;;;;65.20;31.38;;;;;;;;;;4993538;28;93165;-67
2021/12/27 02:30:54;;;;;;;88.45;31.95;;;;;;;;;;4991919;28;92571;-68
2021/12/27 02:33:21;;;;;;;69.85;29.90;;;;;;;;;;4983534;28;94379;-68
2021/12/27 02:35:48;;;;;;;73.68;30.50;;;;;;;;;;4994076;28;93183;-67
2021/12/27 02:38:16;;;;;;;74.45;31.48;;;;;;;;;;4993509;28;96134;-68
2021/12/27 02:40:43;;;;;;;73.88;30.15;;;;;;;;;;4993042;28;95495;-67
2021/12/27 02:43:09;;;;;;;76.38;31.23;;;;;;;;;;4984031;28;93349;-67
2021/12/27 02:45:38;;;;;;;82.03;33.45;;;;;;;;;;4978128;28;93382;-67
2021/12/27 02:48:05;;;;;;;66.90;30.40;;;;;;;;;;4993439;28;93796;-67
2021/12/27 02:50:32;;;;;;;85.40;32.10;;;;;;;;;;4992438;28;94473;-68
2021/12/27 02:52:59;;;;;;;61.08;29.27;;;;;;;;;;4991526;28;94104;-68
2021/12/27 02:55:26;;;;;;;59.97;27.52;;;;;;;;;;4992063;28;93207;-67
2021/12/27 02:57:52;;;;;;;59.33;30.15;;;;;;;;;;4993121;28;92424;-68
2021/12/27 03:00:44;;;;;;;57.55;24.77;;;;;;;;;;4995221;28;92492;-68
2021/12/27 03:03:11;;;;;;;51.23;26.90;;;;;;;;;;4981021;28;95364;-68
2021/12/27 03:05:38;;;;;;;58.25;28.20;;;;;;;;;;4979029;28;92721;-68
2021/12/27 03:08:04;;;;;;;64.55;29.52;;;;;;;;;;4992346;28;93194;-68
2021/12/27 03:10:32;;;;;;;51.10;26.05;;;;;;;;;;4974502;28;94225;-68
2021/12/27 03:12:59;;;;;;;65.07;28.33;;;;;;;;;;4978757;28;92539;-68
2021/12/27 03:15:26;;;;;;;68.60;31.88;;;;;;;;;;4981392;28;94007;-68
2021/12/27 03:17:53;;;;;;;69.80;31.35;;;;;;;;;;4972769;28;93128;-68
2021/12/27 03:20:21;;;;;;;81.60;31.88;;;;;;;;;;4978319;28;91746;-68
2021/12/27 03:22:50;;;;;;;84.28;31.05;;;;;;;;;;4995350;28;93060;-68
2021/12/27 03:25:18;;;;;;;73.60;31.27;;;;;;;;;;4990737;28;92600;-68
2021/12/27 03:27:45;;;;;;;60.05;27.52;;;;;;;;;;4990003;28;94962;-68
2021/12/27 03:30:13;;;;;;;85.43;32.05;;;;;;;;;;4992151;28;93596;-68
2021/12/27 03:32:40;;;;;;;73.85;30.70;;;;;;;;;;4993303;28;92568;-68
2021/12/27 03:35:10;;;;;;;88.18;34.40;;;;;;;;;;4992183;28;93407;-68
2021/12/27 03:37:38;;;;;;;77.70;28.23;;;;;;;;;;5008864;28;93566;-69
2021/12/27 03:40:05;;;;;;;91.10;31.13;;;;;;;;;;5001213;28;92444;-67
2021/12/27 03:42:32;;;;;;;95.47;33.03;;;;;;;;;;4971710;28;93912;-67
2021/12/27 03:44:58;;;;;;;110.22;32.28;;;;;;;;;;4976526;28;92701;-68
2021/12/27 03:47:25;;;;;;;113.97;32.42;;;;;;;;;;4971727;28;93164;-67
2021/12/27 03:49:51;;;;;;;81.70;31.77;;;;;;;;;;4990769;28;94254;-67
2021/12/27 03:52:18;;;;;;;101.63;32.90;;;;;;;;;;4990359;28;95197;-68
2021/12/27 03:54:44;;;;;;;88.57;30.38;;;;;;;;;;4988999;28;96499;-67
2021/12/27 03:57:10;;;;;;;111.50;35.05;;;;;;;;;;4989798;28;94122;-67
2021/12/27 04:02:09;;;;;;;103.83;33.53;;;;;;;;;;4973716;28;93633;-67
2021/12/27 04:04:36;;;;;;;118.50;35.75;;;;;;;;;;4988074;28;93118;-67
2021/12/27 04:07:02;;;;;;;94.72;31.17;;;;;;;;;;4994434;28;92600;-68
2021/12/27 04:09:29;;;;;;;109.65;32.85;;;;;;;;;;4990588;28;92669;-68
2021/12/27 04:11:55;;;;;;;97.53;34.03;;;;;;;;;;4986107;28;93234;-68
2021/12/27 04:14:22;;;;;;;93.72;31.98;;;;;;;;;;4991344;28;94574;-68
2021/12/27 04:16:48;;;;;;;159.65;38.72;;;;;;;;;;4969219;28;96137;-68
2021/12/27 04:19:14;;;;;;;128.30;37.33;;;;;;;;;;4977504;28;92498;-67
2021/12/27 04:21:41;;;;;;;121.00;37.00;;;;;;;;;;5008933;28;93119;-67
2021/12/27 04:24:07;;;;;;;105.30;36.35;;;;;;;;;;4999275;28;94365;-67
2021/12/27 04:26:33;;;;;;;120.40;36.67;;;;;;;;;;4974941;28;92550;-68
2021/12/27 04:29:00;;;;;;;116.90;34.22;;;;;;;;;;4988261;28;94067;-68
2021/12/27 04:31:26;;;;;;;134.93;36.15;;;;;;;;;;4990664;28;93091;-67
2021/12/27 04:33:52;;;;;;;121.30;35.95;;;;;;;;;;4990851;28;94001;-67
2021/12/27 04:36:19;;;;;;;113.25;35.20;;;;;;;;;;5002831;28;93874;-67
2021/12/27 04:38:45;;;;;;;109.97;35.65;;;;;;;;;;4987978;28;92543;-68
2021/12/27 04:41:13;;;;;;;129.70;34.63;;;;;;;;;;5000049;28;94914;-67
2021/12/27 04:43:40;;;;;;;112.55;35.60;;;;;;;;;;5006328;28;94075;-68
2021/12/27 04:46:07;;;;;;;96.30;33.47;;;;;;;;;;4994779;28;92811;-67
2021/12/27 04:48:33;;;;;;;93.40;31.35;;;;;;;;;;4993153;28;93245;-68
2021/12/27 04:50:59;;;;;;;85.80;31.30;;;;;;;;;;4974873;28;92465;-68
2021/12/27 04:53:26;;;;;;;87.63;30.85;;;;;;;;;;4977183;28;94244;-67
2021/12/27 04:55:52;;;;;;;103.20;32.83;;;;;;;;;;4994963;28;94572;-68
2021/12/27 04:58:23;;;;;;;70.72;31.40;;;;;;;;;;4992188;28;91950;-68
2021/12/27 05:00:50;;;;;;;87.45;31.92;;;;;;;;;;4990389;28;93259;-68
2021/12/27 05:03:17;;;;;;;97.65;33.15;;;;;;;;;;4993758;28;93660;-68
2021/12/27 05:05:46;;;;;;;89.50;33.70;;;;;;;;;;5009051;28;94840;-68
2021/12/27 05:08:12;;;;;;;43.58;23.63;;;;;;;;;;4975580;28;97726;-68
2021/12/27 05:10:43;;;;;;;74.35;30.27;;;;;;;;;;4992082;28;94249;-68
2021/12/27 05:13:09;;;;;;;73.10;29.98;;;;;;;;;;4974208;28;93432;-67
2021/12/27 05:15:36;;;;;;;85.25;32.45;;;;;;;;;;4990268;28;94603;-67
2021/12/27 05:18:02;;;;;;;85.07;29.95;;;;;;;;;;4992511;28;92518;-67
2021/12/27 05:20:28;;;;;;;68.95;30.00;;;;;;;;;;4993114;28;94348;-67
2021/12/27 05:22:54;;;;;;;68.15;29.83;;;;;;;;;;4994518;28;92675;-67
2021/12/27 05:25:21;;;;;;;64.32;28.38;;;;;;;;;;4994257;28;92499;-67
2021/12/27 05:27:47;;;;;;;73.72;29.40;;;;;;;;;;4993216;28;94123;-67
2021/12/27 05:30:17;;;;;;;51.80;24.92;;;;;;;;;;4992250;28;97223;-66
2021/12/27 05:32:44;;;;;;;72.22;29.77;;;;;;;;;;4996042;28;93714;-67
2021/12/27 05:35:11;;;;;;;96.35;31.30;;;;;;;;;;4994563;28;94482;-68
2021/12/27 05:37:38;;;;;;;79.05;28.75;;;;;;;;;;4980481;28;92591;-68
2021/12/27 05:40:06;;;;;;;93.50;29.45;;;;;;;;;;4977326;28;92950;-67
2021/12/27 05:42:34;;;;;;;83.45;28.67;;;;;;;;;;4993445;28;94019;-68
2021/12/27 05:45:00;;;;;;;106.68;31.77;;;;;;;;;;4996883;28;92479;-68
2021/12/27 05:47:27;;;;;;;68.38;26.70;;;;;;;;;;4993443;28;94147;-68
2021/12/27 05:49:54;;;;;;;143.00;36.00;;;;;;;;;;4993520;28;95978;-67
2021/12/27 05:52:20;;;;;;;123.85;33.63;;;;;;;;;;4995182;28;92489;-68
2021/12/27 05:54:46;;;;;;;146.07;34.70;;;;;;;;;;4989529;28;94915;-68
2021/12/27 05:57:13;;;;;;;132.10;33.83;;;;;;;;;;4975035;28;92525;-68
2021/12/27 05:59:45;;;;;;;100.88;33.30;;;;;;;;;;4994126;28;93131;-67
2021/12/27 06:02:12;;;;;;;149.98;37.15;;;;;;;;;;4992699;28;93598;-67
2021/12/27 06:04:38;;;;;;;96.97;32.20;;;;;;;;;;4987114;28;92552;-67
2021/12/27 06:07:04;;;;;;;134.40;35.63;;;;;;;;;;4993622;28;93772;-67
2021/12/27 06:09:31;;;;;;;127.00;37.03;;;;;;;;;;4992119;28;94509;-68
2021/12/27 06:11:57;;;;;;;110.50;32.03;;;;;;;;;;4994121;28;91763;-67
2021/12/27 06:14:23;;;;;;;160.85;38.28;;;;;;;;;;4977796;28;92825;-67
2021/12/27 06:16:50;;;;;;;156.18;37.00;;;;;;;;;;4979542;28;93035;-67
2021/12/27 06:19:17;;;;;;;88.47;29.77;;;;;;;;;;4977450;28;95594;-67
2021/12/27 06:21:44;;;;;;;177.77;39.40;;;;;;;;;;4997202;28;94154;-67
2021/12/27 06:24:10;;;;;;;193.43;37.45;;;;;;;;;;5010262;28;92774;-67
2021/12/27 06:26:37;;;;;;;229.90;42.53;;;;;;;;;;4992972;28;93923;-68
2021/12/27 06:29:03;;;;;;;149.02;38.20;;;;;;;;;;4991777;28;94156;-67
2021/12/27 06:31:30;;;;;;;224.88;41.20;;;;;;;;;;4973329;28;92573;-68
2021/12/27 06:33:56;;;;;;;230.63;42.33;;;;;;;;;;4973572;28;93896;-68
2021/12/27 06:36:22;;;;;;;172.32;38.72;;;;;;;;;;4993962;28;93601;-67
2021/12/27 06:38:49;;;;;;;168.60;39.63;;;;;;;;;;5012334;28;93230;-67
2021/12/27 06:41:15;;;;;;;155.35;37.35;;;;;;;;;;4992319;28;96543;-67
2021/12/27 06:43:42;;;;;;;198.57;41.10;;;;;;;;;;4999025;28;95429;-68
2021/12/27 06:46:08;;;;;;;148.85;38.75;;;;;;;;;;4995304;28;95397;-68
2021/12/27 06:48:35;;;;;;;135.68;34.17;;;;;;;;;;4985016;28;94363;-68
2021/12/27 06:51:01;;;;;;;178.63;40.92;;;;;;;;;;5004711;28;92761;-67
2021/12/27 06:53:30;;;;;;;195.80;43.42;;;;;;;;;;4982591;28;94410;-68
2021/12/27 06:55:57;;;;;;;201.68;39.95;;;;;;;;;;4986855;28;93437;-68
2021/12/27 06:58:23;;;;;;;152.68;38.90;;;;;;;;;;4979049;28;93023;-68
2021/12/27 07:00:50;;;;;;;159.27;37.58;;;;;;;;;;4992910;28;93694;-67
2021/12/27 07:03:17;;;;;;;251.20;47.47;;;;;;;;;;5000577;28;92390;-68
2021/12/27 07:05:43;;;;;;;257.83;49.25;;;;;;;;;;4997838;28;93555;-67
2021/12/27 07:08:09;;;;;;;214.18;42.25;;;;;;;;;;4984318;28;95910;-67
2021/12/27 07:10:36;;;;;;;118.38;30.00;;;;;;;;;;4994884;28;92523;-67
2021/12/27 07:13:04;;;;;;;272.80;45.38;;;;;;;;;;4993743;28;93307;-67
2021/12/27 07:15:30;;;;;;;335.55;52.47;;;;;;;;;;4992843;28;94325;-67
2021/12/27 07:17:57;;;;;;;411.10;56.78;;;;;;;;;;4992942;28;93186;-66
2021/12/27 07:20:23;;;;;;;286.17;48.05;;;;;;;;;;4995267;28;93213;-69
2021/12/27 07:22:50;;;;;;;327.17;53.47;;;;;;;;;;4973451;28;92534;-68
2021/12/27 07:25:16;;;;;;;161.93;39.35;;;;;;;;;;4989604;28;94572;-68
2021/12/27 07:27:43;;;;;;;237.35;43.40;;;;;;;;;;4992750;28;94355;-68
2021/12/27 07:30:10;;;;;;;235.00;43.80;;;;;;;;;;4993262;28;92491;-68
2021/12/27 07:32:37;;;;;;;167.63;38.13;;;;;;;;;;4989086;28;94851;-68
2021/12/27 07:35:05;;;;;;;251.40;41.08;;;;;;;;;;4992449;28;94261;-67
2021/12/27 07:37:31;;;;;;;279.27;43.55;;;;;;;;;;4985694;28;92475;-68
2021/12/27 07:39:58;;;;;;;244.00;47.40;;;;;;;;;;4972052;28;94157;-67
2021/12/27 07:42:24;;;;;;;329.15;50.75;;;;;;;;;;4975582;28;93886;-67
2021/12/27 07:44:51;;;;;;;237.93;45.35;;;;;;;;;;4972813;28;93518;-67
2021/12/27 07:47:17;;;;;;;247.25;44.83;;;;;;;;;;4971730;28;93330;-67
2021/12/27 07:49:43;;;;;;;247.85;45.47;;;;;;;;;;4972827;28;91777;-68
2021/12/27 07:52:10;;;;;;;309.20;54.47;;;;;;;;;;4976873;28;93164;-68
2021/12/27 07:54:37;;;;;;;294.13;49.33;;;;;;;;;;4971018;28;93735;-68
2021/12/27 07:57:04;;;;;;;296.40;46.38;;;;;;;;;;4971300;28;94810;-68
2021/12/27 07:59:30;;;;;;;330.67;48.60;;;;;;;;;;4971739;28;96565;-69
2021/12/27 08:01:57;;;;;;;277.75;45.10;;;;;;;;;;4973945;28;93388;-68
2021/12/27 08:04:24;;;;;;;299.83;46.70;;;;;;;;;;5003132;28;94461;-68
2021/12/27 08:06:50;;;;;;;393.52;55.72;;;;;;;;;;4976524;28;94945;-68
2021/12/27 08:09:17;;;;;;;215.35;45.58;;;;;;;;;;4971247;28;92530;-68
2021/12/27 08:11:44;;;;;;;215.77;42.78;;;;;;;;;;4974422;28;93116;-68
2021/12/27 08:14:11;;;;;;;260.98;43.97;;;;;;;;;;4976649;28;93321;-68
2021/12/27 08:16:37;;;;;;;310.85;52.28;;;;;;;;;;4974385;28;92698;-68
2021/12/27 08:19:03;;;;;;;297.08;50.25;;;;;;;;;;4975674;28;93154;-68
2021/12/27 08:21:31;;;;;;;260.58;47.88;;;;;;;;;;4973353;28;95694;-68
2021/12/27 08:23:57;;;;;;;313.25;51.90;;;;;;;;;;4975536;28;92472;-68
2021/12/27 08:26:24;;;;;;;232.45;48.92;;;;;;;;;;4978152;28;94042;-68
2021/12/27 08:28:51;;;;;;;345.52;52.08;;;;;;;;;;4975075;28;92990;-68
2021/12/27 08:31:17;;;;;;;250.23;47.38;;;;;;;;;;4974943;28;94362;-69
2021/12/27 08:33:44;;;;;;;158.45;39.63;;;;;;;;;;4974947;28;93152;-68
2021/12/27 08:36:10;;;;;;;191.50;44.22;;;;;;;;;;4974768;28;92939;-68
2021/12/27 08:38:36;;;;;;;193.63;43.08;;;;;;;;;;4975505;28;94059;-68
2021/12/27 08:41:03;;;;;;;200.65;44.63;;;;;;;;;;4975029;28;94563;-69
2021/12/27 08:43:29;;;;;;;227.30;45.90;;;;;;;;;;4974146;28;92516;-68
2021/12/27 08:45:57;;;;;;;219.30;44.78;;;;;;;;;;4976655;28;95460;-68
2021/12/27 08:48:23;;;;;;;135.30;34.85;;;;;;;;;;4974878;28;92462;-68
2021/12/27 08:50:50;;;;;;;261.67;46.15;;;;;;;;;;4974490;28;94086;-68
2021/12/27 08:53:18;;;;;;;145.77;39.70;;;;;;;;;;4993631;28;94167;-69
2021/12/27 08:55:45;;;;;;;143.65;38.38;;;;;;;;;;4985512;28;92562;-69
2021/12/27 08:58:11;;;;;;;130.52;37.00;;;;;;;;;;4974248;28;94036;-66
2021/12/27 09:00:37;;;;;;;104.25;34.65;;;;;;;;;;4974450;28;94163;-69
2021/12/27 09:03:04;;;;;;;125.80;37.92;;;;;;;;;;4993983;28;92044;-69
2021/12/27 09:05:31;;;;;;;124.82;37.08;;;;;;;;;;4995999;28;93606;-68
2021/12/27 09:07:57;;;;;;;91.78;34.20;;;;;;;;;;4997559;28;94123;-68
2021/12/27 09:10:24;;;;;;;81.07;33.63;;;;;;;;;;4992759;28;94845;-69
2021/12/27 09:12:50;;;;;;;70.60;30.85;;;;;;;;;;4993685;28;93318;-69
2021/12/27 09:15:17;;;;;;;82.88;34.00;;;;;;;;;;4977025;28;94054;-69
2021/12/27 09:17:43;;;;;;;74.82;31.35;;;;;;;;;;4976038;28;94027;-69
2021/12/27 09:20:10;;;;;;;73.45;33.50;;;;;;;;;;4994146;28;94061;-69
2021/12/27 09:22:36;;;;;;;74.10;32.22;;;;;;;;;;4992970;28;92525;-69
2021/12/27 09:25:03;;;;;;;51.60;28.35;;;;;;;;;;4989273;28;93524;-69
2021/12/27 09:27:30;;;;;;;50.60;28.58;;;;;;;;;;4994427;28;93704;-69
2021/12/27 09:29:56;;;;;;;70.28;31.73;;;;;;;;;;4978771;28;92473;-67
2021/12/27 09:32:22;;;;;;;71.43;31.77;;;;;;;;;;4973697;28;94160;-69
2021/12/27 09:34:50;;;;;;;59.97;28.33;;;;;;;;;;4973181;28;96174;-67
2021/12/27 09:37:16;;;;;;;62.38;28.67;;;;;;;;;;4973865;28;96709;-67
2021/12/27 09:39:43;;;;;;;51.83;27.40;;;;;;;;;;4973872;28;93180;-67
2021/12/27 09:42:09;;;;;;;59.85;31.10;;;;;;;;;;4973962;28;92447;-68
2021/12/27 09:44:35;;;;;;;60.08;29.00;;;;;;;;;;4973923;28;94097;-68
2021/12/27 09:47:02;;;;;;;61.22;30.15;;;;;;;;;;4975018;28;93350;-68
2021/12/27 09:49:29;;;;;;;63.80;30.65;;;;;;;;;;4993171;28;92502;-68
2021/12/27 09:51:57;;;;;;;70.32;33.50;;;;;;;;;;4987889;28;93189;-68
2021/12/27 09:54:25;;;;;;;54.60;30.08;;;;;;;;;;4989612;28;92664;-68
2021/12/27 09:56:51;;;;;;;50.35;26.17;;;;;;;;;;4974259;28;92881;-68
2021/12/27 09:59:18;;;;;;;47.38;27.35;;;;;;;;;;4972047;28;96515;-68
2021/12/27 10:01:44;;;;;;;44.70;25.63;;;;;;;;;;4972764;28;92846;-68
2021/12/27 10:04:11;;;;;;;44.22;25.45;;;;;;;;;;4974208;28;93405;-68
2021/12/27 10:06:37;;;;;;;39.67;26.20;;;;;;;;;;4973732;28;93394;-68
2021/12/27 10:09:05;;;;;;;43.75;25.55;;;;;;;;;;4973046;28;93474;-68
2021/12/27 10:11:35;;;;;;;38.55;22.80;;;;;;;;;;4974383;28;92931;-68
2021/12/27 10:14:01;;;;;;;40.75;24.05;;;;;;;;;;4976943;28;93188;-68
2021/12/27 10:16:28;;;;;;;35.83;20.75;;;;;;;;;;4973875;28;92389;-68
2021/12/27 10:18:56;;;;;;;36.38;23.65;;;;;;;;;;4973386;28;92458;-67
2021/12/27 10:21:22;;;;;;;43.95;25.20;;;;;;;;;;4972544;28;92758;-67
2021/12/27 10:24:00;;;;;;;42.22;26.80;;;;;;;;;;4972289;28;94975;-67
2021/12/27 10:26:28;;;;;;;42.92;25.05;;;;;;;;;;4973486;28;93376;-68
2021/12/27 10:29:06;;;;;;;35.72;22.73;;;;;;;;;;4985352;28;92420;-68
2021/12/27 10:31:49;;;;;;;39.83;25.63;;;;;;;;;;4984071;28;93668;-68
2021/12/27 10:34:15;;;;;;;42.30;24.38;;;;;;;;;;4971955;28;94032;-68
2021/12/27 10:36:58;;;;;;;41.72;24.90;;;;;;;;;;4975098;28;92507;-68
2021/12/27 10:39:28;;;;;;;40.60;23.55;;;;;;;;;;4972932;28;93473;-68
2021/12/27 10:42:04;;;;;;;39.45;23.65;;;;;;;;;;4973806;28;91908;-68
2021/12/27 10:44:30;;;;;;;35.72;23.83;;;;;;;;;;4972728;28;93257;-68
2021/12/27 10:46:57;;;;;;;27.17;21.10;;;;;;;;;;4972868;28;94225;-68
2021/12/27 10:49:34;;;;;;;29.45;21.98;;;;;;;;;;4971145;28;94880;-68
2021/12/27 10:52:00;;;;;;;23.73;19.23;;;;;;;;;;4981684;28;95743;-68
2021/12/27 10:54:26;;;;;;;30.45;22.60;;;;;;;;;;4992218;28;93960;-69
2021/12/27 10:56:53;;;;;;;24.20;21.40;;;;;;;;;;4985413;28;93038;-68
2021/12/27 10:59:20;;;;;;;22.63;19.95;;;;;;;;;;4972821;28;94256;-68
2021/12/27 11:01:48;;;;;;;31.88;20.98;;;;;;;;;;4973071;28;93406;-68
2021/12/27 11:04:15;;;;;;;23.05;18.60;;;;;;;;;;4972105;28;93109;-69
2021/12/27 11:06:43;;;;;;;26.40;19.02;;;;;;;;;;4983213;28;92542;-68
2021/12/27 11:09:09;;;;;;;28.25;19.67;;;;;;;;;;4992471;28;92487;-68
2021/12/27 11:11:36;;;;;;;21.33;18.88;;;;;;;;;;4991956;28;93607;-68
2021/12/27 11:14:02;;;;;;;21.65;18.65;;;;;;;;;;4990744;28;96652;-68
2021/12/27 11:16:28;;;;;;;23.65;19.73;;;;;;;;;;4991344;28;92496;-68
2021/12/27 11:18:55;;;;;;;21.70;18.65;;;;;;;;;;4989180;28;94869;-68
2021/12/27 11:21:23;;;;;;;22.75;17.80;;;;;;;;;;4992313;28;92513;-68
2021/12/27 11:23:51;;;;;;;22.63;17.20;;;;;;;;;;4991815;28;92525;-68
2021/12/27 11:26:30;;;;;;;21.27;17.27;;;;;;;;;;4990702;28;94154;-68
2021/12/27 11:29:13;;;;;;;19.42;15.18;;;;;;;;;;4992392;28;92667;-68
2021/12/27 11:31:40;;;;;;;16.55;14.93;;;;;;;;;;4992133;28;93159;-68
2021/12/27 11:34:07;;;;;;;18.58;15.40;;;;;;;;;;4991913;28;93351;-68
2021/12/27 11:36:35;;;;;;;20.08;16.55;;;;;;;;;;4991934;28;92483;-68
2021/12/27 11:39:25;;;;;;;19.55;15.52;;;;;;;;;;4990042;28;94925;-68
2021/12/27 11:42:05;;;;;;;18.23;15.50;;;;;;;;;;4977263;28;93674;-68
2021/12/27 11:44:45;;;;;;;18.67;15.60;;;;;;;;;;4972226;28;94055;-67
2021/12/27 11:47:22;;;;;;;17.95;15.57;;;;;;;;;;4971901;28;93049;-68
2021/12/27 11:49:52;;;;;;;18.35;15.98;;;;;;;;;;4972552;28;93868;-68
2021/12/27 11:52:27;;;;;;;17.45;15.13;;;;;;;;;;4975906;28;93489;-68
2021/12/27 11:54:56;;;;;;;20.02;14.57;;;;;;;;;;4981374;28;93785;-68
2021/12/27 11:57:36;;;;;;;20.27;14.90;;;;;;;;;;4989353;28;91789;-68
2021/12/27 12:00:29;;;;;;;16.58;14.68;;;;;;;;;;4990922;28;92466;-66
2021/12/27 12:03:07;;;;;;;20.40;14.88;;;;;;;;;;4981882;28;93765;-67
2021/12/27 12:05:39;;;;;;;17.17;15.38;;;;;;;;;;4993052;28;95657;-68
2021/12/27 12:08:06;;;;;;;18.97;15.57;;;;;;;;;;4991833;28;93656;-67
2021/12/27 12:10:33;;;;;;;16.70;14.93;;;;;;;;;;4988802;28;92532;-69
2021/12/27 12:13:17;;;;;;;16.85;15.02;;;;;;;;;;4972322;28;94063;-68
2021/12/27 12:15:59;;;;;;;16.83;15.18;;;;;;;;;;4990019;28;93674;-68
2021/12/27 12:18:26;;;;;;;20.52;15.70;;;;;;;;;;4991419;28;92935;-66
2021/12/27 12:20:52;;;;;;;19.05;15.57;;;;;;;;;;4991103;28;94036;-67
2021/12/27 12:23:52;;;;;;;16.60;13.73;;;;;;;;;;4985815;28;92392;-67
2021/12/27 12:26:18;;;;;;;15.27;12.63;;;;;;;;;;4991559;28;92423;-67
2021/12/27 12:28:45;;;;;;;16.17;14.52;;;;;;;;;;4994150;28;94453;-67
2021/12/27 12:31:11;;;;;;;16.20;14.45;;;;;;;;;;4989869;28;94951;-67
2021/12/27 12:33:38;;;;;;;16.83;12.95;;;;;;;;;;4991492;28;95622;-67
2021/12/27 12:36:05;;;;;;;21.73;13.30;;;;;;;;;;4982380;28;93301;-68
2021/12/27 12:38:31;;;;;;;13.63;12.32;;;;;;;;;;4976483;28;92512;-68
2021/12/27 12:41:03;;;;;;;15.43;13.43;;;;;;;;;;4973079;28;93940;-68
2021/12/27 12:43:31;;;;;;;15.68;12.93;;;;;;;;;;4990640;28;93358;-68
2021/12/27 12:45:58;;;;;;;10.70;9.70;;;;;;;;;;4986442;28;92628;-67
2021/12/27 12:48:28;;;;;;;16.02;11.57;;;;;;;;;;4988601;28;93871;-67
2021/12/27 12:50:54;;;;;;;14.77;12.55;;;;;;;;;;4980607;28;92503;-67
2021/12/27 12:53:28;;;;;;;13.60;11.57;;;;;;;;;;4983098;28;94514;-67
2021/12/27 12:55:58;;;;;;;16.13;11.15;;;;;;;;;;4988849;28;96700;-68
2021/12/27 12:58:32;;;;;;;12.57;11.30;;;;;;;;;;4983884;28;92551;-67
2021/12/27 13:01:06;;;;;;;15.68;12.10;;;;;;;;;;4974776;28;94070;-67
2021/12/27 13:03:33;;;;;;;14.85;10.85;;;;;;;;;;4987497;28;93417;-68
2021/12/27 13:06:00;;;;;;;14.10;11.57;;;;;;;;;;4994365;28;92601;-67
2021/12/27 13:08:27;;;;;;;12.40;11.20;;;;;;;;;;4994468;28;93445;-67
2021/12/27 13:10:57;;;;;;;13.88;11.50;;;;;;;;;;4992286;28;94212;-67
2021/12/27 13:13:24;;;;;;;12.40;11.15;;;;;;;;;;4994164;28;93286;-67
2021/12/27 13:15:53;;;;;;;11.45;10.45;;;;;;;;;;4994084;28;94605;-67
2021/12/27 13:18:21;;;;;;;13.40;11.02;;;;;;;;;;4993547;28;92563;-67
2021/12/27 13:20:49;;;;;;;12.82;11.60;;;;;;;;;;4992883;28;94831;-67
2021/12/27 13:23:17;;;;;;;13.35;12.15;;;;;;;;;;4993728;28;92834;-67
2021/12/27 13:25:46;;;;;;;13.20;11.85;;;;;;;;;;4993848;28;92489;-66
2021/12/27 13:28:19;;;;;;;13.18;11.90;;;;;;;;;;4994270;28;92512;-66
2021/12/27 13:30:47;;;;;;;12.88;11.65;;;;;;;;;;4994260;28;93494;-67
2021/12/27 13:33:14;;;;;;;14.57;11.30;;;;;;;;;;4996791;28;93484;-67
2021/12/27 13:35:41;;;;;;;8.45;7.35;;;;;;;;;;4993790;28;93297;-67
2021/12/27 13:38:18;;;;;;;13.23;10.90;;;;;;;;;;4994988;28;92262;-67
2021/12/27 13:40:46;;;;;;;11.95;10.77;;;;;;;;;;5000862;28;93782;-67
2021/12/27 13:43:13;;;;;;;13.95;12.13;;;;;;;;;;4973988;28;94891;-66
2021/12/27 13:45:41;;;;;;;12.88;11.02;;;;;;;;;;4971617;28;94931;-67
2021/12/27 13:48:09;;;;;;;13.90;11.55;;;;;;;;;;4973879;28;96685;-67
2021/12/27 13:50:36;;;;;;;12.68;10.40;;;;;;;;;;4973326;28;93451;-67
2021/12/27 13:53:10;;;;;;;14.25;12.05;;;;;;;;;;4983646;28;92837;-67
2021/12/27 13:55:36;;;;;;;12.90;11.65;;;;;;;;;;4995630;28;93526;-67
2021/12/27 13:58:16;;;;;;;12.77;11.57;;;;;;;;;;4994305;28;92496;-67
2021/12/27 14:00:43;;;;;;;16.42;11.88;;;;;;;;;;4993098;28;94315;-68
2021/12/27 14:03:41;;;;;;;13.15;11.57;;;;;;;;;;4994068;28;92422;-67
2021/12/27 14:06:11;;;;;;;13.68;12.27;;;;;;;;;;4971171;28;92666;-67
2021/12/27 14:08:38;;;;;;;13.27;11.88;;;;;;;;;;4992081;28;93970;-67
2021/12/27 14:11:11;;;;;;;13.75;11.80;;;;;;;;;;4987880;28;96713;-67
2021/12/27 14:13:50;;;;;;;10.48;9.45;;;;;;;;;;4980553;28;92593;-68
2021/12/27 14:16:20;;;;;;;13.68;11.02;;;;;;;;;;4984871;28;92929;-68
2021/12/27 14:19:05;;;;;;;13.98;12.13;;;;;;;;;;4993879;28;93730;-67
2021/12/27 14:21:33;;;;;;;14.40;12.57;;;;;;;;;;4987302;28;93881;-67
2021/12/27 14:24:07;;;;;;;15.80;13.02;;;;;;;;;;4991340;28;94279;-67